sensor_id;sensor_type;location;lat;lon;timestamp;pressure;altitude;pressure_sealevel;temperature;humidity
26978;BME280;56314;48.088;11.642;2023-09-08T00:02:07;95718.34;;;15.21;91.97
26978;BME280;56314;48.088;11.642;2023-09-08T00:04:32;95718.47;;;15.19;92.24
26978;BME280;56314;48.088;11.642;2023-09-08T00:06:58;95713.34;;;15.18;92.56
26978;BME280;56314;48.088;11.642;2023-09-08T00:09:24;95710.13;;;15.14;92.41
26978;BME280;56314;48.088;11.642;2023-09-08T00:11:49;95715.13;;;15.17;92.37
26978;BME280;56314;48.088;11.642;2023-09-08T00:14:14;95719.59;;;15.07;93.61
26978;BME280;56314;48.088;11.642;2023-09-08T00:16:40;95713.31;;;15.08;93.30
26978;BME280;56314;48.088;11.642;2023-09-08T00:19:08;95710.97;;;14.95;93.13
26978;BME280;56314;48.088;11.642;2023-09-08T00:21:33;95721.09;;;14.90;94.11
26978;BME280;56314;48.088;11.642;2023-09-08T00:23:59;95719.56;;;14.87;94.42
26978;BME280;56314;48.088;11.642;2023-09-08T00:26:26;95714.97;;;14.80;94.89
26978;BME280;56314;48.088;11.642;2023-09-08T00:28:51;95715.94;;;14.78;95.24
26978;BME280;56314;48.088;11.642;2023-09-08T00:31:16;95712.75;;;14.85;94.56
26978;BME280;56314;48.088;11.642;2023-09-08T00:33:42;95720.41;;;14.88;94.01
26978;BME280;56314;48.088;11.642;2023-09-08T00:36:09;95711.88;;;14.74;94.07
26978;BME280;56314;48.088;11.642;2023-09-08T00:38:34;95708.41;;;14.74;94.57
26978;BME280;56314;48.088;11.642;2023-09-08T00:41:00;95713.03;;;14.82;94.82
26978;BME280;56314;48.088;11.642;2023-09-08T00:43:26;95704.41;;;14.80;94.39
26978;BME280;56314;48.088;11.642;2023-09-08T00:45:52;95698.84;;;14.83;94.04
26978;BME280;56314;48.088;11.642;2023-09-08T00:48:19;95699.66;;;14.83;93.29
26978;BME280;56314;48.088;11.642;2023-09-08T00:50:45;95700.06;;;14.78;93.18
26978;BME280;56314;48.088;11.642;2023-09-08T00:53:10;95709.53;;;14.71;93.71
26978;BME280;56314;48.088;11.642;2023-09-08T00:55:36;95703.78;;;14.66;93.60
26978;BME280;56314;48.088;11.642;2023-09-08T00:58:01;95708.91;;;14.58;94.06
26978;BME280;56314;48.088;11.642;2023-09-08T01:00:27;95707.25;;;14.57;93.76
26978;BME280;56314;48.088;11.642;2023-09-08T01:02:53;95716.44;;;14.62;94.26
26978;BME280;56314;48.088;11.642;2023-09-08T01:05:19;95707.25;;;14.57;93.56
26978;BME280;56314;48.088;11.642;2023-09-08T01:07:45;95711.97;;;14.63;93.76
26978;BME280;56314;48.088;11.642;2023-09-08T01:10:11;95702.09;;;14.55;93.75
26978;BME280;56314;48.088;11.642;2023-09-08T01:12:37;95704.72;;;14.45;94.70
26978;BME280;56314;48.088;11.642;2023-09-08T01:15:03;95704.28;;;14.40;93.96
26978;BME280;56314;48.088;11.642;2023-09-08T01:17:29;95706.22;;;14.38;93.67
26978;BME280;56314;48.088;11.642;2023-09-08T01:19:56;95704.69;;;14.36;94.32
26978;BME280;56314;48.088;11.642;2023-09-08T01:23:01;95715.38;;;14.34;94.87
26978;BME280;56314;48.088;11.642;2023-09-08T01:25:29;95717.97;;;14.24;94.03
26978;BME280;56314;48.088;11.642;2023-09-08T01:27:58;95708.53;;;14.22;93.99
26978;BME280;56314;48.088;11.642;2023-09-08T01:30:27;95713.66;;;14.23;93.82
26978;BME280;56314;48.088;11.642;2023-09-08T01:32:54;95708.69;;;14.30;94.05
26978;BME280;56314;48.088;11.642;2023-09-08T01:35:20;95707.88;;;14.29;93.84
26978;BME280;56314;48.088;11.642;2023-09-08T01:37:48;95700.91;;;14.28;93.50
26978;BME280;56314;48.088;11.642;2023-09-08T01:40:14;95704.22;;;14.21;93.88
26978;BME280;56314;48.088;11.642;2023-09-08T01:42:40;95709.59;;;14.09;93.96
26978;BME280;56314;48.088;11.642;2023-09-08T01:45:06;95711.66;;;14.06;94.16
26978;BME280;56314;48.088;11.642;2023-09-08T01:47:32;95716.34;;;14.02;94.25
26978;BME280;56314;48.088;11.642;2023-09-08T01:49:58;95714.44;;;14.04;94.78
26978;BME280;56314;48.088;11.642;2023-09-08T01:52:24;95702.38;;;14.11;93.68
26978;BME280;56314;48.088;11.642;2023-09-08T01:54:49;95699.28;;;14.06;93.71
26978;BME280;56314;48.088;11.642;2023-09-08T01:57:15;95704.25;;;13.99;93.98
26978;BME280;56314;48.088;11.642;2023-09-08T01:59:40;95704.53;;;13.96;93.41
26978;BME280;56314;48.088;11.642;2023-09-08T02:02:05;95708.00;;;13.97;93.51
26978;BME280;56314;48.088;11.642;2023-09-08T02:04:31;95699.38;;;13.95;93.06
26978;BME280;56314;48.088;11.642;2023-09-08T02:06:57;95694.25;;;13.93;93.62
26978;BME280;56314;48.088;11.642;2023-09-08T02:09:30;95690.09;;;14.00;93.44
26978;BME280;56314;48.088;11.642;2023-09-08T02:11:55;95690.09;;;14.00;93.84
26978;BME280;56314;48.088;11.642;2023-09-08T02:14:21;95682.56;;;13.96;93.08
26978;BME280;56314;48.088;11.642;2023-09-08T02:16:46;95694.50;;;13.90;93.18
26978;BME280;56314;48.088;11.642;2023-09-08T02:19:12;95689.06;;;13.92;93.42
26978;BME280;56314;48.088;11.642;2023-09-08T02:21:37;95687.28;;;13.92;93.22
26978;BME280;56314;48.088;11.642;2023-09-08T02:24:02;95694.09;;;13.95;93.29
26978;BME280;56314;48.088;11.642;2023-09-08T02:26:28;95695.47;;;13.89;93.58
26978;BME280;56314;48.088;11.642;2023-09-08T02:28:54;95699.72;;;13.80;94.22
26978;BME280;56314;48.088;11.642;2023-09-08T02:31:20;95701.13;;;13.84;94.15
26978;BME280;56314;48.088;11.642;2023-09-08T02:33:45;95697.41;;;13.87;94.27
26978;BME280;56314;48.088;11.642;2023-09-08T02:36:10;95697.41;;;13.87;94.15
26978;BME280;56314;48.088;11.642;2023-09-08T02:38:36;95698.75;;;13.81;94.43
26978;BME280;56314;48.088;11.642;2023-09-08T02:41:02;95692.06;;;13.77;94.40
26978;BME280;56314;48.088;11.642;2023-09-08T02:43:27;95694.28;;;13.72;95.46
26978;BME280;56314;48.088;11.642;2023-09-08T02:45:53;95695.56;;;13.78;95.13
26978;BME280;56314;48.088;11.642;2023-09-08T02:48:18;95698.69;;;13.72;94.84
26978;BME280;56314;48.088;11.642;2023-09-08T02:50:44;95692.19;;;13.76;94.44
26978;BME280;56314;48.088;11.642;2023-09-08T02:53:09;95691.63;;;13.72;94.41
26978;BME280;56314;48.088;11.642;2023-09-08T02:55:34;95696.13;;;13.60;94.33
26978;BME280;56314;48.088;11.642;2023-09-08T02:58:00;95690.75;;;13.62;94.79
26978;BME280;56314;48.088;11.642;2023-09-08T03:00:25;95695.63;;;13.66;95.36
26978;BME280;56314;48.088;11.642;2023-09-08T03:02:50;95691.47;;;13.64;95.02
26978;BME280;56314;48.088;11.642;2023-09-08T03:05:16;95700.44;;;13.61;94.83
26978;BME280;56314;48.088;11.642;2023-09-08T03:07:41;95695.69;;;13.55;95.27
26978;BME280;56314;48.088;11.642;2023-09-08T03:10:07;95687.78;;;13.55;94.99
26978;BME280;56314;48.088;11.642;2023-09-08T03:12:32;95691.00;;;13.59;95.01
26978;BME280;56314;48.088;11.642;2023-09-08T03:14:58;95689.50;;;13.66;95.05
26978;BME280;56314;48.088;11.642;2023-09-08T03:17:24;95697.81;;;13.61;95.72
26978;BME280;56314;48.088;11.642;2023-09-08T03:19:49;95695.00;;;13.53;95.69
26978;BME280;56314;48.088;11.642;2023-09-08T03:22:15;95695.00;;;13.53;95.91
26978;BME280;56314;48.088;11.642;2023-09-08T03:24:40;95687.53;;;13.58;96.20
26978;BME280;56314;48.088;11.642;2023-09-08T03:27:06;95688.75;;;13.54;95.64
26978;BME280;56314;48.088;11.642;2023-09-08T03:29:31;95696.53;;;13.55;94.33
26978;BME280;56314;48.088;11.642;2023-09-08T03:31:56;95694.66;;;13.46;94.63
26978;BME280;56314;48.088;11.642;2023-09-08T03:34:22;95695.53;;;13.35;95.75
26978;BME280;56314;48.088;11.642;2023-09-08T03:36:48;95692.06;;;13.35;96.55
26978;BME280;56314;48.088;11.642;2023-09-08T03:39:14;95697.34;;;13.35;97.41
26978;BME280;56314;48.088;11.642;2023-09-08T03:41:39;95693.13;;;13.44;97.69
26978;BME280;56314;48.088;11.642;2023-09-08T03:44:05;95690.50;;;13.44;97.52
26978;BME280;56314;48.088;11.642;2023-09-08T03:46:30;95692.41;;;13.42;96.61
26978;BME280;56314;48.088;11.642;2023-09-08T03:48:55;95690.84;;;13.39;97.00
26978;BME280;56314;48.088;11.642;2023-09-08T03:51:26;95695.91;;;13.31;96.81
26978;BME280;56314;48.088;11.642;2023-09-08T03:53:52;95693.16;;;13.32;96.68
26978;BME280;56314;48.088;11.642;2023-09-08T03:56:18;95692.88;;;13.35;96.73
26978;BME280;56314;48.088;11.642;2023-09-08T03:58:43;95693.16;;;13.32;96.94
26978;BME280;56314;48.088;11.642;2023-09-08T04:01:08;95696.88;;;13.30;97.75
26978;BME280;56314;48.088;11.642;2023-09-08T04:03:34;95694.19;;;13.20;97.97
26978;BME280;56314;48.088;11.642;2023-09-08T04:05:59;95696.44;;;13.24;98.90
26978;BME280;56314;48.088;11.642;2023-09-08T04:08:24;95693.66;;;13.26;99.03
26978;BME280;56314;48.088;11.642;2023-09-08T04:10:50;95697.41;;;13.23;98.76
26978;BME280;56314;48.088;11.642;2023-09-08T04:13:15;95696.94;;;13.18;99.08
26978;BME280;56314;48.088;11.642;2023-09-08T04:15:40;95692.03;;;13.14;99.20
26978;BME280;56314;48.088;11.642;2023-09-08T04:18:06;95695.25;;;13.17;99.35
26978;BME280;56314;48.088;11.642;2023-09-08T04:20:31;95696.25;;;13.16;98.99
26978;BME280;56314;48.088;11.642;2023-09-08T04:22:56;95691.94;;;13.15;98.74
26978;BME280;56314;48.088;11.642;2023-09-08T04:25:22;95694.44;;;13.17;98.41
26978;BME280;56314;48.088;11.642;2023-09-08T04:27:47;95691.78;;;13.17;98.31
26978;BME280;56314;48.088;11.642;2023-09-08T04:30:13;95690.97;;;13.16;98.84
26978;BME280;56314;48.088;11.642;2023-09-08T04:32:38;95688.78;;;13.21;99.33
26978;BME280;56314;48.088;11.642;2023-09-08T04:35:04;95688.66;;;13.23;99.64
26978;BME280;56314;48.088;11.642;2023-09-08T04:37:30;95692.63;;;13.17;99.73
26978;BME280;56314;48.088;11.642;2023-09-08T04:39:56;95699.84;;;13.15;99.75
26978;BME280;56314;48.088;11.642;2023-09-08T04:42:21;95696.94;;;13.18;99.45
26978;BME280;56314;48.088;11.642;2023-09-08T04:44:48;95695.41;;;13.16;100.00
26978;BME280;56314;48.088;11.642;2023-09-08T04:47:13;95697.41;;;13.23;100.00
26978;BME280;56314;48.088;11.642;2023-09-08T04:49:39;95706.13;;;13.24;100.00
26978;BME280;56314;48.088;11.642;2023-09-08T04:52:04;95703.63;;;13.22;100.00
26978;BME280;56314;48.088;11.642;2023-09-08T04:54:30;95702.53;;;13.25;100.00
26978;BME280;56314;48.088;11.642;2023-09-08T04:56:57;95699.78;;;13.27;100.00
26978;BME280;56314;48.088;11.642;2023-09-08T04:59:22;95706.06;;;13.35;100.00
26978;BME280;56314;48.088;11.642;2023-09-08T05:01:49;95701.06;;;13.32;100.00
26978;BME280;56314;48.088;11.642;2023-09-08T05:04:16;95709.81;;;13.33;100.00
26978;BME280;56314;48.088;11.642;2023-09-08T05:06:41;95703.19;;;13.38;100.00
26978;BME280;56314;48.088;11.642;2023-09-08T05:09:06;95704.44;;;13.34;100.00
26978;BME280;56314;48.088;11.642;2023-09-08T05:11:32;95703.94;;;13.41;100.00
26978;BME280;56314;48.088;11.642;2023-09-08T05:13:57;95705.13;;;13.36;100.00
26978;BME280;56314;48.088;11.642;2023-09-08T05:16:23;95705.81;;;13.38;100.00
26978;BME280;56314;48.088;11.642;2023-09-08T05:19:05;95709.06;;;13.42;100.00
26978;BME280;56314;48.088;11.642;2023-09-08T05:21:31;95706.44;;;13.42;100.00
26978;BME280;56314;48.088;11.642;2023-09-08T05:23:57;95715.78;;;13.46;100.00
26978;BME280;56314;48.088;11.642;2023-09-08T05:26:22;95716.50;;;13.48;100.00
26978;BME280;56314;48.088;11.642;2023-09-08T05:28:48;95712.63;;;13.52;100.00
26978;BME280;56314;48.088;11.642;2023-09-08T05:31:13;95715.19;;;13.64;100.00
26978;BME280;56314;48.088;11.642;2023-09-08T05:33:38;95719.22;;;13.68;100.00
26978;BME280;56314;48.088;11.642;2023-09-08T05:36:04;95722.03;;;13.66;100.00
26978;BME280;56314;48.088;11.642;2023-09-08T05:38:30;95720.09;;;13.68;100.00
26978;BME280;56314;48.088;11.642;2023-09-08T05:40:55;95723.06;;;13.75;100.00
26978;BME280;56314;48.088;11.642;2023-09-08T05:43:22;95720.59;;;13.83;100.00
26978;BME280;56314;48.088;11.642;2023-09-08T05:45:47;95727.97;;;13.90;100.00
26978;BME280;56314;48.088;11.642;2023-09-08T05:48:13;95732.34;;;14.00;100.00
26978;BME280;56314;48.088;11.642;2023-09-08T05:50:38;95727.50;;;14.06;100.00
26978;BME280;56314;48.088;11.642;2023-09-08T05:53:04;95726.47;;;14.28;100.00
26978;BME280;56314;48.088;11.642;2023-09-08T05:55:29;95731.81;;;14.38;99.38
26978;BME280;56314;48.088;11.642;2023-09-08T05:57:55;95729.75;;;14.51;98.67
26978;BME280;56314;48.088;11.642;2023-09-08T06:00:20;95724.94;;;14.66;98.08
26978;BME280;56314;48.088;11.642;2023-09-08T06:02:45;95725.13;;;14.84;97.23
26978;BME280;56314;48.088;11.642;2023-09-08T06:05:11;95723.34;;;14.95;96.92
26978;BME280;56314;48.088;11.642;2023-09-08T06:07:36;95729.91;;;15.10;96.92
26978;BME280;56314;48.088;11.642;2023-09-08T06:10:02;95732.97;;;15.15;95.71
26978;BME280;56314;48.088;11.642;2023-09-08T06:12:28;95726.84;;;15.24;95.70
26978;BME280;56314;48.088;11.642;2023-09-08T06:14:53;95728.38;;;15.27;95.86
26978;BME280;56314;48.088;11.642;2023-09-08T06:17:19;95719.03;;;15.33;95.33
26978;BME280;56314;48.088;11.642;2023-09-08T06:19:44;95724.59;;;15.39;95.88
26978;BME280;56314;48.088;11.642;2023-09-08T06:22:10;95724.59;;;15.49;96.55
26978;BME280;56314;48.088;11.642;2023-09-08T06:24:35;95724.44;;;15.51;96.24
26978;BME280;56314;48.088;11.642;2023-09-08T06:27:00;95725.16;;;15.53;96.50
26978;BME280;56314;48.088;11.642;2023-09-08T06:29:26;95727.78;;;15.63;97.13
26978;BME280;56314;48.088;11.642;2023-09-08T06:31:51;95725.09;;;15.73;97.29
26978;BME280;56314;48.088;11.642;2023-09-08T06:34:17;95725.81;;;15.84;97.89
26978;BME280;56314;48.088;11.642;2023-09-08T06:36:45;95728.44;;;15.94;98.33
26978;BME280;56314;48.088;11.642;2023-09-08T06:39:11;95735.53;;;16.04;98.27
26978;BME280;56314;48.088;11.642;2023-09-08T06:41:36;95731.41;;;16.19;97.49
26978;BME280;56314;48.088;11.642;2023-09-08T06:44:01;95730.50;;;16.38;95.57
26978;BME280;56314;48.088;11.642;2023-09-08T06:46:27;95742.72;;;16.59;94.49
26978;BME280;56314;48.088;11.642;2023-09-08T06:48:52;95730.03;;;16.81;93.61
26978;BME280;56314;48.088;11.642;2023-09-08T06:51:17;95735.47;;;17.07;93.34
26978;BME280;56314;48.088;11.642;2023-09-08T06:53:43;95726.06;;;17.31;91.00
26978;BME280;56314;48.088;11.642;2023-09-08T06:56:09;95729.31;;;17.61;90.90
26978;BME280;56314;48.088;11.642;2023-09-08T06:58:34;95727.28;;;17.81;89.44
26978;BME280;56314;48.088;11.642;2023-09-08T07:01:00;95724.78;;;17.97;88.93
26978;BME280;56314;48.088;11.642;2023-09-08T07:03:25;95721.44;;;18.22;86.45
26978;BME280;56314;48.088;11.642;2023-09-08T07:05:52;95724.13;;;18.30;85.86
26978;BME280;56314;48.088;11.642;2023-09-08T07:08:17;95727.34;;;18.42;85.45
26978;BME280;56314;48.088;11.642;2023-09-08T07:10:43;95731.06;;;18.57;83.86
26978;BME280;56314;48.088;11.642;2023-09-08T07:13:08;95725.28;;;18.70;81.99
26978;BME280;56314;48.088;11.642;2023-09-08T07:15:34;95723.00;;;18.84;81.00
26978;BME280;56314;48.088;11.642;2023-09-08T07:17:59;95723.84;;;18.92;82.64
26978;BME280;56314;48.088;11.642;2023-09-08T07:20:24;95719.75;;;19.06;82.32
26978;BME280;56314;48.088;11.642;2023-09-08T07:22:50;95713.13;;;19.11;81.13
26978;BME280;56314;48.088;11.642;2023-09-08T07:25:15;95714.59;;;19.13;81.27
26978;BME280;56314;48.088;11.642;2023-09-08T07:27:40;95709.28;;;19.13;82.59
26978;BME280;56314;48.088;11.642;2023-09-08T07:30:06;95714.63;;;19.21;82.60
26978;BME280;56314;48.088;11.642;2023-09-08T07:32:32;95721.28;;;19.26;81.49
26978;BME280;56314;48.088;11.642;2023-09-08T07:34:57;95718.16;;;19.30;81.29
26978;BME280;56314;48.088;11.642;2023-09-08T07:37:23;95718.66;;;19.34;81.39
26978;BME280;56314;48.088;11.642;2023-09-08T07:39:49;95717.81;;;19.42;82.15
26978;BME280;56314;48.088;11.642;2023-09-08T07:42:15;95717.97;;;19.57;81.46
26978;BME280;56314;48.088;11.642;2023-09-08T07:44:40;95714.13;;;19.67;80.57
26978;BME280;56314;48.088;11.642;2023-09-08T07:47:06;95717.31;;;19.79;78.05
26978;BME280;56314;48.088;11.642;2023-09-08T07:49:33;95715.97;;;19.83;79.05
26978;BME280;56314;48.088;11.642;2023-09-08T07:51:59;95720.63;;;19.98;78.02
26978;BME280;56314;48.088;11.642;2023-09-08T07:54:24;95718.63;;;20.00;77.71
26978;BME280;56314;48.088;11.642;2023-09-08T07:56:49;95722.94;;;20.09;78.29
26978;BME280;56314;48.088;11.642;2023-09-08T07:59:15;95718.44;;;20.10;77.40
26978;BME280;56314;48.088;11.642;2023-09-08T08:01:40;95725.28;;;20.12;77.81
26978;BME280;56314;48.088;11.642;2023-09-08T08:04:05;95723.44;;;20.21;77.75
26978;BME280;56314;48.088;11.642;2023-09-08T08:06:31;95718.72;;;20.32;78.10
26978;BME280;56314;48.088;11.642;2023-09-08T08:08:56;95724.22;;;20.38;77.98
26978;BME280;56314;48.088;11.642;2023-09-08T08:11:23;95720.69;;;20.46;76.10
26978;BME280;56314;48.088;11.642;2023-09-08T08:13:49;95722.50;;;20.54;75.98
26978;BME280;56314;48.088;11.642;2023-09-08T08:16:14;95726.59;;;20.65;76.55
26978;BME280;56314;48.088;11.642;2023-09-08T08:18:39;95723.06;;;20.72;76.91
26978;BME280;56314;48.088;11.642;2023-09-08T08:21:05;95723.72;;;20.83;76.61
26978;BME280;56314;48.088;11.642;2023-09-08T08:23:30;95722.69;;;20.92;77.17
26978;BME280;56314;48.088;11.642;2023-09-08T08:25:57;95709.94;;;21.02;75.55
26978;BME280;56314;48.088;11.642;2023-09-08T08:28:22;95715.69;;;21.14;73.82
26978;BME280;56314;48.088;11.642;2023-09-08T08:30:49;95717.69;;;21.20;73.77
26978;BME280;56314;48.088;11.642;2023-09-08T08:33:15;95712.03;;;21.38;74.84
26978;BME280;56314;48.088;11.642;2023-09-08T08:35:40;95712.22;;;21.60;73.74
26978;BME280;56314;48.088;11.642;2023-09-08T08:38:05;95710.63;;;21.89;72.20
26978;BME280;56314;48.088;11.642;2023-09-08T08:40:31;95715.81;;;22.21;69.78
26978;BME280;56314;48.088;11.642;2023-09-08T08:42:59;95712.84;;;22.54;67.44
26978;BME280;56314;48.088;11.642;2023-09-08T08:45:26;95711.34;;;23.03;65.95
26978;BME280;56314;48.088;11.642;2023-09-08T08:47:52;95705.88;;;23.48;64.63
26978;BME280;56314;48.088;11.642;2023-09-08T08:50:18;95701.00;;;24.08;62.59
26978;BME280;56314;48.088;11.642;2023-09-08T08:52:43;95702.06;;;24.84;60.45
26978;BME280;56314;48.088;11.642;2023-09-08T08:55:09;95696.91;;;25.58;58.17
26978;BME280;56314;48.088;11.642;2023-09-08T08:57:38;95692.09;;;26.48;54.04
26978;BME280;56314;48.088;11.642;2023-09-08T09:00:08;95686.94;;;27.05;52.87
26978;BME280;56314;48.088;11.642;2023-09-08T09:02:38;95682.88;;;27.85;51.10
26978;BME280;56314;48.088;11.642;2023-09-08T09:05:05;95685.41;;;28.68;46.64
26978;BME280;56314;48.088;11.642;2023-09-08T09:07:32;95685.00;;;29.51;44.92
26978;BME280;56314;48.088;11.642;2023-09-08T09:09:57;95689.53;;;29.92;43.63
26978;BME280;56314;48.088;11.642;2023-09-08T09:12:23;95686.34;;;30.79;42.23
26978;BME280;56314;48.088;11.642;2023-09-08T09:14:52;95685.00;;;31.34;41.07
26978;BME280;56314;48.088;11.642;2023-09-08T09:17:18;95678.53;;;31.81;39.69
26978;BME280;56314;48.088;11.642;2023-09-08T09:19:43;95680.63;;;32.13;39.46
26978;BME280;56314;48.088;11.642;2023-09-08T09:22:08;95683.56;;;32.46;39.90
26978;BME280;56314;48.088;11.642;2023-09-08T09:24:39;95679.38;;;32.77;37.54
26978;BME280;56314;48.088;11.642;2023-09-08T09:27:11;95678.94;;;33.08;38.47
26978;BME280;56314;48.088;11.642;2023-09-08T09:29:48;95673.28;;;33.37;36.55
26978;BME280;56314;48.088;11.642;2023-09-08T09:32:15;95679.44;;;33.54;37.65
26978;BME280;56314;48.088;11.642;2023-09-08T09:34:48;95681.09;;;33.88;36.01
26978;BME280;56314;48.088;11.642;2023-09-08T09:37:15;95671.16;;;34.04;34.87
26978;BME280;56314;48.088;11.642;2023-09-08T09:39:40;95680.72;;;34.12;35.30
26978;BME280;56314;48.088;11.642;2023-09-08T09:42:06;95670.66;;;34.50;34.55
26978;BME280;56314;48.088;11.642;2023-09-08T09:44:31;95672.69;;;34.80;34.60
26978;BME280;56314;48.088;11.642;2023-09-08T09:46:57;95667.38;;;35.06;34.43
26978;BME280;56314;48.088;11.642;2023-09-08T09:49:22;95667.91;;;35.03;33.32
26978;BME280;56314;48.088;11.642;2023-09-08T09:51:53;95669.09;;;35.33;32.73
26978;BME280;56314;48.088;11.642;2023-09-08T09:54:18;95668.28;;;35.43;33.90
26978;BME280;56314;48.088;11.642;2023-09-08T09:56:45;95668.25;;;35.38;33.87
26978;BME280;56314;48.088;11.642;2023-09-08T09:59:12;95667.50;;;35.48;32.95
26978;BME280;56314;48.088;11.642;2023-09-08T10:01:39;95668.81;;;35.29;33.39
26978;BME280;56314;48.088;11.642;2023-09-08T10:04:05;95661.97;;;35.37;33.38
26978;BME280;56314;48.088;11.642;2023-09-08T10:06:33;95657.66;;;35.52;32.12
26978;BME280;56314;48.088;11.642;2023-09-08T10:09:00;95655.78;;;35.78;32.28
26978;BME280;56314;48.088;11.642;2023-09-08T10:11:29;95655.75;;;35.68;31.98
26978;BME280;56314;48.088;11.642;2023-09-08T10:13:58;95657.38;;;35.48;32.48
26978;BME280;56314;48.088;11.642;2023-09-08T10:16:26;95653.56;;;35.59;31.71
26978;BME280;56314;48.088;11.642;2023-09-08T10:18:53;95653.00;;;35.47;31.54
26978;BME280;56314;48.088;11.642;2023-09-08T10:21:21;95652.69;;;35.33;32.71
26978;BME280;56314;48.088;11.642;2023-09-08T10:24:01;95654.88;;;35.41;32.47
26978;BME280;56314;48.088;11.642;2023-09-08T10:26:32;95655.44;;;35.33;33.32
26978;BME280;56314;48.088;11.642;2023-09-08T10:29:00;95651.34;;;35.36;33.98
26978;BME280;56314;48.088;11.642;2023-09-08T10:31:28;95654.28;;;35.13;33.55
26978;BME280;56314;48.088;11.642;2023-09-08T10:33:55;95659.47;;;35.20;33.36
26978;BME280;56314;48.088;11.642;2023-09-08T10:36:22;95654.59;;;35.27;33.48
26978;BME280;56314;48.088;11.642;2023-09-08T10:38:48;95645.41;;;35.54;34.18
26978;BME280;56314;48.088;11.642;2023-09-08T10:43:44;95651.56;;;35.19;34.02
26978;BME280;56314;48.088;11.642;2023-09-08T10:46:10;95649.38;;;35.16;33.58
26978;BME280;56314;48.088;11.642;2023-09-08T10:48:43;95650.22;;;35.21;34.23
26978;BME280;56314;48.088;11.642;2023-09-08T10:51:13;95646.13;;;35.29;34.42
26978;BME280;56314;48.088;11.642;2023-09-08T10:53:39;95646.06;;;34.98;34.33
26978;BME280;56314;48.088;11.642;2023-09-08T10:56:05;95646.03;;;34.93;33.84
26978;BME280;56314;48.088;11.642;2023-09-08T10:58:35;95645.41;;;34.75;34.14
26978;BME280;56314;48.088;11.642;2023-09-08T11:01:04;95647.88;;;34.77;34.03
26978;BME280;56314;48.088;11.642;2023-09-08T11:06:08;95635.63;;;34.31;36.02
26978;BME280;56314;48.088;11.642;2023-09-08T11:08:34;95644.78;;;34.10;35.47
26978;BME280;56314;48.088;11.642;2023-09-08T11:11:00;95642.28;;;34.03;35.80
26978;BME280;56314;48.088;11.642;2023-09-08T11:13:27;95641.66;;;33.96;36.92
26978;BME280;56314;48.088;11.642;2023-09-08T11:15:53;95631.69;;;33.74;36.68
26978;BME280;56314;48.088;11.642;2023-09-08T11:18:28;95640.56;;;33.59;37.22
26978;BME280;56314;48.088;11.642;2023-09-08T11:20:54;95636.97;;;33.53;36.24
26978;BME280;56314;48.088;11.642;2023-09-08T11:23:23;95636.34;;;33.46;36.80
26978;BME280;56314;48.088;11.642;2023-09-08T11:25:50;95630.69;;;33.53;37.36
26978;BME280;56314;48.088;11.642;2023-09-08T11:28:16;95633.19;;;33.59;36.98
26978;BME280;56314;48.088;11.642;2023-09-08T11:30:41;95635.84;;;33.49;36.72
26978;BME280;56314;48.088;11.642;2023-09-08T11:33:18;95645.66;;;33.28;37.53
26978;BME280;56314;48.088;11.642;2023-09-08T11:35:46;95640.06;;;33.35;37.36
26978;BME280;56314;48.088;11.642;2023-09-08T11:38:12;95639.25;;;33.34;37.01
26978;BME280;56314;48.088;11.642;2023-09-08T11:40:38;95639.34;;;33.22;37.42
26978;BME280;56314;48.088;11.642;2023-09-08T11:43:05;95636.13;;;33.25;37.08
26978;BME280;56314;48.088;11.642;2023-09-08T11:45:34;95627.75;;;33.32;36.68
26978;BME280;56314;48.088;11.642;2023-09-08T11:47:59;95632.53;;;33.47;37.44
26978;BME280;56314;48.088;11.642;2023-09-08T11:50:25;95628.75;;;33.48;38.08
26978;BME280;56314;48.088;11.642;2023-09-08T11:52:51;95633.03;;;33.39;36.69
26978;BME280;56314;48.088;11.642;2023-09-08T11:55:18;95621.66;;;33.47;36.65
26978;BME280;56314;48.088;11.642;2023-09-08T11:57:47;95622.72;;;33.41;37.46
26978;BME280;56314;48.088;11.642;2023-09-08T12:00:15;95621.09;;;33.45;36.64
26978;BME280;56314;48.088;11.642;2023-09-08T12:02:42;95621.09;;;33.45;37.02
26978;BME280;56314;48.088;11.642;2023-09-08T12:05:21;95625.03;;;33.32;37.35
26978;BME280;56314;48.088;11.642;2023-09-08T12:07:51;95632.59;;;33.52;36.18
26978;BME280;56314;48.088;11.642;2023-09-08T12:10:17;95631.88;;;33.35;35.85
26978;BME280;56314;48.088;11.642;2023-09-08T12:15:09;95623.72;;;33.35;36.08
26978;BME280;56314;48.088;11.642;2023-09-08T12:17:46;95629.09;;;33.29;34.95
26978;BME280;56314;48.088;11.642;2023-09-08T12:20:14;95620.59;;;33.26;36.45
26978;BME280;56314;48.088;11.642;2023-09-08T12:22:47;95621.19;;;33.28;35.97
26978;BME280;56314;48.088;11.642;2023-09-08T12:25:13;95620.91;;;33.02;35.81
26978;BME280;56314;48.088;11.642;2023-09-08T12:27:38;95623.50;;;32.87;36.82
26978;BME280;56314;48.088;11.642;2023-09-08T12:30:04;95624.63;;;32.68;36.99
26978;BME280;56314;48.088;11.642;2023-09-08T12:32:31;95628.50;;;32.55;37.28
26978;BME280;56314;48.088;11.642;2023-09-08T12:34:58;95618.16;;;32.75;37.80
26978;BME280;56314;48.088;11.642;2023-09-08T12:37:25;95621.94;;;32.74;37.87
26978;BME280;56314;48.088;11.642;2023-09-08T12:39:53;95625.50;;;32.74;38.22
26978;BME280;56314;48.088;11.642;2023-09-08T12:42:18;95619.28;;;32.79;39.07
26978;BME280;56314;48.088;11.642;2023-09-08T12:44:44;95621.28;;;32.83;38.31
26978;BME280;56314;48.088;11.642;2023-09-08T12:47:10;95616.00;;;32.77;38.70
26978;BME280;56314;48.088;11.642;2023-09-08T12:49:39;95613.25;;;32.72;37.84
26978;BME280;56314;48.088;11.642;2023-09-08T12:52:05;95615.88;;;32.66;39.14
26978;BME280;56314;48.088;11.642;2023-09-08T12:54:31;95617.16;;;32.59;39.05